createdAt,value
2018-08-12T00:00:45.783Z,1.17
2018-08-12T00:03:17.153Z,1.40
2018-08-12T00:05:48.457Z,1.20
2018-08-12T00:08:20.710Z,1.60
2018-08-12T00:10:52.154Z,1.10
2018-08-12T00:13:23.698Z,1.42
2018-08-12T00:15:55.063Z,1.57
2018-08-12T00:18:26.411Z,1.70
2018-08-12T00:20:57.799Z,1.50
2018-08-12T00:23:29.221Z,1.62
2018-08-12T00:26:00.563Z,1.50
2018-08-12T00:28:32.070Z,1.45
2018-08-12T00:31:03.663Z,1.40
2018-08-12T00:33:35.434Z,1.35
2018-08-12T00:36:06.875Z,1.45
2018-08-12T00:38:38.382Z,1.57
2018-08-12T00:41:10.191Z,1.50
2018-08-12T00:43:41.631Z,1.15
2018-08-12T00:46:13.305Z,1.37
2018-08-12T00:48:44.870Z,1.45
2018-08-12T00:51:16.805Z,1.52
2018-08-12T00:53:48.528Z,1.27
2018-08-12T00:56:20.123Z,1.52
2018-08-12T00:58:51.939Z,1.50
2018-08-12T01:01:23.666Z,1.42
2018-08-12T01:03:55.737Z,1.67
2018-08-12T01:06:27.109Z,1.50
2018-08-12T01:08:58.619Z,1.47
2018-08-12T01:11:30.036Z,1.65
2018-08-12T01:14:01.488Z,1.55
2018-08-12T01:16:32.918Z,1.32
2018-08-12T01:19:04.460Z,1.70
2018-08-12T01:21:35.743Z,1.80
2018-08-12T01:24:07.670Z,1.45
2018-08-12T01:26:39.084Z,1.47
2018-08-12T01:29:10.441Z,1.25
2018-08-12T01:31:41.884Z,1.27
2018-08-12T01:34:13.363Z,1.20
2018-08-12T01:36:44.651Z,1.55
2018-08-12T01:39:16.469Z,1.30
2018-08-12T01:41:47.963Z,1.27
2018-08-12T01:44:19.473Z,1.60
2018-08-12T01:46:50.823Z,1.50
2018-08-12T01:49:22.112Z,1.32
2018-08-12T01:51:53.528Z,1.60
2018-08-12T01:54:24.993Z,1.67
2018-08-12T01:56:56.602Z,1.30
2018-08-12T01:59:28.280Z,1.40
2018-08-12T02:01:59.665Z,1.42
2018-08-12T02:04:31.154Z,1.30
2018-08-12T02:07:02.483Z,1.37
2018-08-12T02:09:34.093Z,1.30
2018-08-12T02:12:05.654Z,1.32
2018-08-12T02:14:36.940Z,1.50
2018-08-12T02:17:08.906Z,1.80
2018-08-12T02:19:40.388Z,1.42
2018-08-12T02:22:11.984Z,1.27
2018-08-12T02:24:43.503Z,1.35
2018-08-12T02:27:15.057Z,1.37
2018-08-12T02:29:46.509Z,1.60
2018-08-12T02:32:17.982Z,1.35
2018-08-12T02:34:49.399Z,1.32
2018-08-12T02:37:20.721Z,1.45
2018-08-12T02:39:52.165Z,1.40
2018-08-12T02:42:23.652Z,1.52
2018-08-12T02:44:55.429Z,1.52
2018-08-12T02:47:26.988Z,1.72
2018-08-12T02:49:58.499Z,1.40
2018-08-12T02:52:29.910Z,1.37
2018-08-12T02:55:01.339Z,1.20
2018-08-12T02:57:32.837Z,1.90
2018-08-12T03:00:04.310Z,1.45
2018-08-12T03:02:35.614Z,1.80
2018-08-12T03:05:07.036Z,1.43
2018-08-12T03:07:38.595Z,1.30
2018-08-12T03:10:10.094Z,1.45
2018-08-12T03:12:41.407Z,1.50
2018-08-12T03:15:13.041Z,1.30
2018-08-12T03:17:44.642Z,1.40
2018-08-12T03:20:16.275Z,1.45
2018-08-12T03:22:47.810Z,1.20
2018-08-12T03:25:19.251Z,1.37
2018-08-12T03:27:50.756Z,1.40
2018-08-12T03:30:22.083Z,1.30
2018-08-12T03:32:53.499Z,1.32
2018-08-12T03:35:25.110Z,1.40
2018-08-12T03:37:56.760Z,1.30
2018-08-12T03:40:28.649Z,1.50
2018-08-12T03:43:00.122Z,1.22
2018-08-12T03:45:31.915Z,1.25
2018-08-12T03:48:03.437Z,1.22
2018-08-12T03:50:34.905Z,1.60
2018-08-12T03:53:06.634Z,1.35
2018-08-12T03:55:38.110Z,1.22
2018-08-12T03:58:09.389Z,1.57
2018-08-12T04:00:40.696Z,1.40
2018-08-12T04:03:11.979Z,1.60
2018-08-12T04:05:43.402Z,1.10
2018-08-12T04:08:14.669Z,1.35
2018-08-12T04:10:46.274Z,1.00
2018-08-12T04:13:17.669Z,1.10
2018-08-12T04:15:49.063Z,1.40
2018-08-12T04:18:20.729Z,1.30
2018-08-12T04:20:52.595Z,0.90
2018-08-12T04:23:24.039Z,1.17
2018-08-12T04:25:55.498Z,1.10
2018-08-12T04:28:26.946Z,1.07
2018-08-12T04:30:58.527Z,0.93
2018-08-12T04:33:30.177Z,0.88
2018-08-12T04:36:01.646Z,1.10
2018-08-12T04:38:33.134Z,1.02
2018-08-12T04:41:04.708Z,0.80
2018-08-12T04:43:36.247Z,0.95
2018-08-12T04:46:07.685Z,0.90
2018-08-12T04:48:39.100Z,0.80
2018-08-12T04:51:10.450Z,0.93
2018-08-12T04:53:41.800Z,0.78
2018-08-12T04:56:13.286Z,0.80
2018-08-12T04:58:44.703Z,0.82
2018-08-12T05:01:16.116Z,0.90
2018-08-12T05:03:47.621Z,0.80
2018-08-12T05:06:18.989Z,0.80
2018-08-12T05:08:50.492Z,0.90
2018-08-12T05:11:21.907Z,1.15
2018-08-12T05:13:53.288Z,0.50
2018-08-12T05:16:24.787Z,0.70
2018-08-12T05:18:56.063Z,0.80
2018-08-12T05:21:27.594Z,0.90
2018-08-12T05:23:58.995Z,0.75
2018-08-12T05:26:30.297Z,0.88
2018-08-12T05:29:01.844Z,0.70
2018-08-12T05:31:33.330Z,0.80
2018-08-12T05:34:04.799Z,0.72
2018-08-12T05:36:36.318Z,0.80
2018-08-12T05:39:12.639Z,0.90
2018-08-12T05:41:44.595Z,0.80
2018-08-12T05:44:16.093Z,1.60
2018-08-12T05:46:47.448Z,3.12
2018-08-12T05:49:19.170Z,0.78
2018-08-12T05:51:50.728Z,0.78
2018-08-12T05:54:22.298Z,0.80
2018-08-12T05:56:53.637Z,3.00
2018-08-12T05:59:25.203Z,2.67
2018-08-12T06:01:56.759Z,1.15
2018-08-12T06:04:28.296Z,1.10
2018-08-12T06:06:59.768Z,1.10
2018-08-12T06:09:31.087Z,0.95
2018-08-12T06:12:02.479Z,1.12
2018-08-12T06:14:34.057Z,1.20
2018-08-12T06:17:05.648Z,1.20
2018-08-12T06:19:37.194Z,1.40
2018-08-12T06:22:08.577Z,1.67
2018-08-12T06:24:40.001Z,1.70
2018-08-12T06:27:11.526Z,1.22
2018-08-12T06:29:42.921Z,3.52
2018-08-12T06:32:14.166Z,1.85
2018-08-12T06:34:45.823Z,2.00
2018-08-12T06:37:17.325Z,1.25
2018-08-12T06:39:48.627Z,1.32
2018-08-12T06:42:19.986Z,1.37
2018-08-12T06:44:51.646Z,1.25
2018-08-12T06:47:23.215Z,1.20
2018-08-12T06:49:54.546Z,1.90
2018-08-12T06:52:25.885Z,1.50
2018-08-12T06:54:57.422Z,3.17
2018-08-12T06:57:28.687Z,1.70
2018-08-12T07:00:00.220Z,1.42
2018-08-12T07:02:31.707Z,1.10
2018-08-12T07:05:03.411Z,1.37
2018-08-12T07:07:34.859Z,1.47
2018-08-12T07:10:08.373Z,1.27
2018-08-12T07:12:40.060Z,1.20
2018-08-12T07:15:15.111Z,1.30
2018-08-12T07:17:47.275Z,1.37
2018-08-12T07:20:18.893Z,1.55
2018-08-12T07:22:50.428Z,1.35
2018-08-12T07:25:21.827Z,1.47
2018-08-12T07:27:53.135Z,1.50
2018-08-12T07:30:24.598Z,1.37
2018-08-12T07:32:55.946Z,1.35
2018-08-12T07:35:27.412Z,1.75
2018-08-12T07:37:59.035Z,1.67
2018-08-12T07:40:30.416Z,1.75
2018-08-12T07:43:01.946Z,1.60
2018-08-12T07:45:33.516Z,1.80
2018-08-12T07:48:05.011Z,1.45
2018-08-12T07:50:36.513Z,1.72
2018-08-12T07:53:07.950Z,1.65
2018-08-12T07:55:39.446Z,1.60
2018-08-12T07:58:10.923Z,1.30
2018-08-12T08:00:42.351Z,1.72
2018-08-12T08:03:13.785Z,1.57
2018-08-12T08:05:45.338Z,1.05
2018-08-12T08:08:16.853Z,1.27
2018-08-12T08:10:48.782Z,1.52
2018-08-12T08:13:20.373Z,1.80
2018-08-12T08:15:51.649Z,1.70
2018-08-12T08:18:23.315Z,1.70
2018-08-12T08:20:55.059Z,1.77
2018-08-12T08:23:26.662Z,1.62
2018-08-12T08:25:58.150Z,1.50
2018-08-12T08:28:29.438Z,1.75
2018-08-12T08:31:00.952Z,1.57
2018-08-12T08:33:32.412Z,2.05
2018-08-12T08:36:03.810Z,1.55
2018-08-12T08:38:35.362Z,1.52
2018-08-12T08:41:07.523Z,1.62
2018-08-12T08:43:39.102Z,1.37
2018-08-12T08:46:10.495Z,1.40
2018-08-12T08:48:41.834Z,1.45
2018-08-12T08:51:13.141Z,1.55
2018-08-12T08:53:44.626Z,1.32
2018-08-12T08:56:16.173Z,1.27
2018-08-12T08:58:47.626Z,1.40
2018-08-12T09:01:19.275Z,1.20
2018-08-12T09:03:50.634Z,1.17
2018-08-12T09:06:22.082Z,1.40
2018-08-12T09:08:53.663Z,1.20
2018-08-12T09:11:25.205Z,1.07
2018-08-12T09:13:56.624Z,1.27
2018-08-12T09:16:27.888Z,1.25
2018-08-12T09:18:59.351Z,1.17
2018-08-12T09:21:30.711Z,1.95
2018-08-12T09:24:02.291Z,1.40
2018-08-12T09:26:33.794Z,1.60
2018-08-12T09:29:05.627Z,1.50
2018-08-12T09:31:37.029Z,1.30
2018-08-12T09:34:08.338Z,1.40
2018-08-12T09:36:39.965Z,1.35
2018-08-12T09:39:12.811Z,1.30
2018-08-12T09:41:44.338Z,1.30
2018-08-12T09:44:15.850Z,1.37
2018-08-12T09:46:47.243Z,1.37
2018-08-12T09:49:19.208Z,1.30
2018-08-12T09:51:50.886Z,1.30
2018-08-12T09:54:22.160Z,1.37
2018-08-12T09:56:53.841Z,1.15
2018-08-12T09:59:25.444Z,1.10
2018-08-12T10:01:57.026Z,1.40
2018-08-12T10:04:28.517Z,1.25
2018-08-12T10:06:59.867Z,1.20
2018-08-12T10:09:31.186Z,1.60
2018-08-12T10:12:02.729Z,1.35
2018-08-12T10:14:34.217Z,1.30
2018-08-12T10:17:05.896Z,1.67
2018-08-12T10:19:37.617Z,1.35
2018-08-12T10:22:09.206Z,1.32
2018-08-12T10:24:40.789Z,1.22
2018-08-12T10:27:12.516Z,1.40
2018-08-12T10:29:43.971Z,1.55
2018-08-12T10:32:15.802Z,1.40
2018-08-12T10:34:47.423Z,1.30
2018-08-12T10:37:19.393Z,1.37
2018-08-12T10:39:50.877Z,1.70
2018-08-12T10:42:22.496Z,1.40
2018-08-12T10:44:53.948Z,1.55
2018-08-12T10:47:25.351Z,1.20
2018-08-12T10:49:57.007Z,1.70
2018-08-12T10:52:28.737Z,1.50
2018-08-12T10:55:00.122Z,1.87
2018-08-12T10:57:31.815Z,1.50
2018-08-12T11:00:03.895Z,1.47
2018-08-12T11:02:35.420Z,1.27
2018-08-12T11:05:07.055Z,1.60
2018-08-12T11:07:38.573Z,1.60
2018-08-12T11:10:11.163Z,1.37
2018-08-12T11:12:43.274Z,1.40
2018-08-12T11:15:14.444Z,1.70
2018-08-12T11:17:45.964Z,1.40
2018-08-12T11:20:17.266Z,1.60
2018-08-12T11:22:48.778Z,1.47
2018-08-12T11:25:20.242Z,1.40
2018-08-12T11:27:51.784Z,1.30
2018-08-12T11:30:23.333Z,1.45
2018-08-12T11:32:54.700Z,1.60
2018-08-12T11:35:25.961Z,1.65
2018-08-12T11:37:57.540Z,1.50
2018-08-12T11:40:29.125Z,1.52
2018-08-12T11:43:00.439Z,1.42
2018-08-12T11:45:31.648Z,1.40
2018-08-12T11:48:03.099Z,1.20
2018-08-12T11:50:34.646Z,1.17
2018-08-12T11:53:06.009Z,1.40
2018-08-12T11:55:37.534Z,1.20
2018-08-12T11:58:09.102Z,1.17
2018-08-12T12:00:40.490Z,1.00
2018-08-12T12:03:12.488Z,1.30
2018-08-12T12:05:44.021Z,1.37
2018-08-12T12:08:15.595Z,1.52
2018-08-12T12:10:47.193Z,1.10
2018-08-12T12:13:18.814Z,1.10
2018-08-12T12:15:50.074Z,1.10
2018-08-12T12:18:21.747Z,1.15
2018-08-12T12:20:53.179Z,1.20
2018-08-12T12:23:24.510Z,1.42
2018-08-12T12:25:55.842Z,1.45
2018-08-12T12:28:27.210Z,1.17
2018-08-12T12:30:58.875Z,1.30
2018-08-12T12:33:30.274Z,0.90
2018-08-12T12:36:01.740Z,1.15
2018-08-12T12:38:33.040Z,0.95
2018-08-12T12:41:04.659Z,1.00
2018-08-12T12:43:36.152Z,1.50
2018-08-12T12:46:07.646Z,1.40
2018-08-12T12:48:39.141Z,1.42
2018-08-12T12:51:10.777Z,1.20
2018-08-12T12:53:42.195Z,1.30
2018-08-12T12:56:13.868Z,1.20
2018-08-12T12:58:45.563Z,1.20
2018-08-12T13:01:17.282Z,1.62
2018-08-12T13:03:48.658Z,2.92
2018-08-12T13:06:20.105Z,2.83
2018-08-12T13:08:51.470Z,1.40
2018-08-12T13:11:23.739Z,1.60
2018-08-12T13:13:55.137Z,1.35
2018-08-12T13:16:26.641Z,1.00
2018-08-12T13:18:58.164Z,1.82
2018-08-12T13:21:29.507Z,1.30
2018-08-12T13:24:00.789Z,0.90
2018-08-12T13:26:32.156Z,1.25
2018-08-12T13:29:03.891Z,1.40
2018-08-12T13:31:35.450Z,1.02
2018-08-12T13:34:06.989Z,1.72
2018-08-12T13:36:38.507Z,1.57
2018-08-12T13:39:12.844Z,1.30
2018-08-12T13:41:44.486Z,4.58
2018-08-12T13:44:15.929Z,1.20
2018-08-12T13:46:47.489Z,1.30
2018-08-12T13:49:18.961Z,1.20
2018-08-12T13:51:50.225Z,1.35
2018-08-12T13:54:21.769Z,1.10
2018-08-12T13:56:53.203Z,1.07
2018-08-12T13:59:24.738Z,1.10
2018-08-12T14:01:56.130Z,1.45
2018-08-12T14:04:27.655Z,1.62
2018-08-12T14:06:59.007Z,1.47
2018-08-12T14:09:30.359Z,1.30
2018-08-12T14:12:01.735Z,1.17
2018-08-12T14:14:33.167Z,1.35
2018-08-12T14:17:04.702Z,1.50
2018-08-12T14:19:36.280Z,1.77
2018-08-12T14:22:07.737Z,1.30
2018-08-12T14:24:39.100Z,2.22
2018-08-12T14:27:10.415Z,3.67
2018-08-12T14:29:41.877Z,1.00
2018-08-12T14:32:13.376Z,1.27
2018-08-12T14:34:44.881Z,1.50
2018-08-12T14:37:16.434Z,1.17
2018-08-12T14:39:47.838Z,1.32
2018-08-12T14:42:19.210Z,1.52
2018-08-12T14:44:50.709Z,1.37
2018-08-12T14:47:22.214Z,1.40
2018-08-12T14:49:53.501Z,1.30
2018-08-12T14:52:24.977Z,1.25
2018-08-12T14:54:56.300Z,1.00
2018-08-12T14:57:27.626Z,1.20
2018-08-12T14:59:59.130Z,2.02
2018-08-12T15:02:30.715Z,1.75
2018-08-12T15:05:02.172Z,1.50
2018-08-12T15:07:33.593Z,1.07
2018-08-12T15:10:06.199Z,1.50
2018-08-12T15:12:37.826Z,1.20
2018-08-12T15:15:11.182Z,1.32
2018-08-12T15:17:43.811Z,1.52
2018-08-12T15:20:15.807Z,1.15
2018-08-12T15:22:47.171Z,1.32
2018-08-12T15:25:20.731Z,1.25
2018-08-12T15:27:52.151Z,1.52
2018-08-12T15:30:23.670Z,1.55
2018-08-12T15:32:55.164Z,1.47
2018-08-12T15:35:26.841Z,1.25
2018-08-12T15:37:58.358Z,1.20
2018-08-12T15:40:29.773Z,1.30
2018-08-12T15:43:01.274Z,1.20
2018-08-12T15:45:32.772Z,1.50
2018-08-12T15:48:04.434Z,2.27
2018-08-12T15:50:36.156Z,1.60
2018-08-12T15:53:07.999Z,1.47
2018-08-12T15:55:39.617Z,1.50
2018-08-12T15:58:17.511Z,1.30
2018-08-12T16:00:49.058Z,1.30
2018-08-12T16:03:20.474Z,1.27
2018-08-12T16:05:52.423Z,1.10
2018-08-12T16:08:23.963Z,1.30
2018-08-12T16:10:55.664Z,1.30
2018-08-12T16:13:27.073Z,1.87
2018-08-12T16:15:58.648Z,1.35
2018-08-12T16:18:30.100Z,1.45
2018-08-12T16:21:01.668Z,1.25
2018-08-12T16:23:33.172Z,1.47
2018-08-12T16:26:04.870Z,1.20
2018-08-12T16:28:36.315Z,1.40
2018-08-12T16:31:08.274Z,1.30
2018-08-12T16:33:39.710Z,1.30
2018-08-12T16:36:11.105Z,1.37
2018-08-12T16:38:42.517Z,1.50
2018-08-12T16:41:14.033Z,1.40
2018-08-12T16:43:45.226Z,1.60
2018-08-12T16:46:16.683Z,1.30
2018-08-12T16:48:47.941Z,1.30
2018-08-12T16:51:19.671Z,1.52
2018-08-12T16:53:51.121Z,1.77
2018-08-12T16:56:22.570Z,1.80
2018-08-12T16:58:53.929Z,1.85
2018-08-12T17:01:25.368Z,2.02
2018-08-12T17:03:56.715Z,2.40
2018-08-12T17:06:28.290Z,1.85
2018-08-12T17:08:59.884Z,1.67
2018-08-12T17:11:31.755Z,1.85
2018-08-12T17:14:03.322Z,1.92
2018-08-12T17:16:34.972Z,1.50
2018-08-12T17:19:06.524Z,1.70
2018-08-12T17:21:37.676Z,1.57
2018-08-12T17:24:08.976Z,1.77
2018-08-12T17:26:40.407Z,1.50
2018-08-12T17:29:11.988Z,1.70
2018-08-12T17:31:43.723Z,1.87
2018-08-12T17:34:15.287Z,1.67
2018-08-12T17:36:47.700Z,1.65
2018-08-12T17:39:19.364Z,1.67
2018-08-12T17:41:50.756Z,1.50
2018-08-12T17:44:22.487Z,1.45
2018-08-12T17:46:53.980Z,1.30
2018-08-12T17:49:25.561Z,1.50
2018-08-12T17:51:56.962Z,1.60
2018-08-12T17:54:28.389Z,1.50
2018-08-12T17:57:00.946Z,1.77
2018-08-12T17:59:32.655Z,1.80
2018-08-12T18:02:04.327Z,1.70
2018-08-12T18:04:35.546Z,1.92
2018-08-12T18:07:06.917Z,1.82
2018-08-12T18:09:39.122Z,2.83
2018-08-12T18:12:10.825Z,2.65
2018-08-12T18:14:43.005Z,1.77
2018-08-12T18:17:14.589Z,2.02
2018-08-12T18:19:46.089Z,2.27
2018-08-12T18:22:17.516Z,1.90
2018-08-12T18:24:48.914Z,2.00
2018-08-12T18:27:20.556Z,2.10
2018-08-12T18:29:52.176Z,2.20
2018-08-12T18:32:23.479Z,2.27
2018-08-12T18:34:55.147Z,2.17
2018-08-12T18:37:26.662Z,2.60
2018-08-12T18:39:58.082Z,1.72
2018-08-12T18:42:29.507Z,2.33
2018-08-12T18:45:01.004Z,2.22
2018-08-12T18:47:32.521Z,2.10
2018-08-12T18:50:03.872Z,2.77
2018-08-12T18:52:35.254Z,2.27
2018-08-12T18:55:08.800Z,2.10
2018-08-12T18:57:40.140Z,2.17
2018-08-12T19:00:14.146Z,2.10
2018-08-12T19:02:45.575Z,2.10
2018-08-12T19:05:17.397Z,3.58
2018-08-12T19:07:48.753Z,2.72
2018-08-12T19:10:20.219Z,3.05
2018-08-12T19:12:52.176Z,2.20
2018-08-12T19:15:23.828Z,2.33
2018-08-12T19:17:55.274Z,2.05
2018-08-12T19:20:26.425Z,2.02
2018-08-12T19:22:57.914Z,1.90
2018-08-12T19:25:29.328Z,2.20
2018-08-12T19:28:00.779Z,2.17
2018-08-12T19:30:32.222Z,2.10
2018-08-12T19:33:03.538Z,2.70
2018-08-12T19:35:35.060Z,4.92
2018-08-12T19:38:06.667Z,2.83
2018-08-12T19:40:38.108Z,3.08
2018-08-12T19:43:09.508Z,2.67
2018-08-12T19:45:40.793Z,6.05
2018-08-12T19:48:11.999Z,3.33
2018-08-12T19:50:43.376Z,6.00
2018-08-12T19:53:14.893Z,3.75
2018-08-12T19:55:46.403Z,3.27
2018-08-12T19:58:17.982Z,2.80
2018-08-12T20:00:49.336Z,4.00
2018-08-12T20:03:20.951Z,3.30
2018-08-12T20:05:52.488Z,2.45
2018-08-12T20:08:24.157Z,2.90
2018-08-12T20:10:55.719Z,5.72
2018-08-12T20:13:27.155Z,3.60
2018-08-12T20:15:59.590Z,4.17
2018-08-12T20:18:31.260Z,2.30
2018-08-12T20:21:02.540Z,3.50
2018-08-12T20:23:33.915Z,2.30
2018-08-12T20:26:05.288Z,2.65
2018-08-12T20:28:36.944Z,2.70
2018-08-12T20:31:08.382Z,2.52
2018-08-12T20:33:39.812Z,3.00
2018-08-12T20:36:11.323Z,3.00
2018-08-12T20:38:42.738Z,2.70
2018-08-12T20:41:14.580Z,2.65
2018-08-12T20:43:46.116Z,3.08
2018-08-12T20:46:18.081Z,3.00
2018-08-12T20:48:49.402Z,2.12
2018-08-12T20:51:20.994Z,2.20
2018-08-12T20:53:52.819Z,1.92
2018-08-12T20:56:24.306Z,2.58
2018-08-12T20:58:55.661Z,2.33
2018-08-12T21:01:27.160Z,2.80
2018-08-12T21:03:58.432Z,2.60
2018-08-12T21:06:29.801Z,1.90
2018-08-12T21:09:01.427Z,2.58
2018-08-12T21:11:32.805Z,2.10
2018-08-12T21:14:04.169Z,1.80
2018-08-12T21:16:35.491Z,2.00
2018-08-12T21:19:07.202Z,1.90
2018-08-12T21:21:38.579Z,2.33
2018-08-12T21:24:10.161Z,2.35
2018-08-12T21:26:41.463Z,2.10
2018-08-12T21:29:12.909Z,2.27
2018-08-12T21:31:44.382Z,2.30
2018-08-12T21:34:15.947Z,2.00
2018-08-12T21:36:47.417Z,2.10
2018-08-12T21:39:18.652Z,1.87
2018-08-12T21:41:50.006Z,2.33
2018-08-12T21:44:21.612Z,2.27
2018-08-12T21:46:52.991Z,2.30
2018-08-12T21:49:24.436Z,1.95
2018-08-12T21:51:56.169Z,1.85
2018-08-12T21:54:27.678Z,2.12
2018-08-12T21:56:58.928Z,2.85
2018-08-12T21:59:30.361Z,2.65
2018-08-12T22:02:02.211Z,2.65
2018-08-12T22:04:33.519Z,2.47
2018-08-12T22:07:04.992Z,2.83
2018-08-12T22:09:36.590Z,2.35
2018-08-12T22:12:08.199Z,2.98
2018-08-12T22:14:39.540Z,2.52
2018-08-12T22:17:11.409Z,2.35
2018-08-12T22:19:43.119Z,2.77
2018-08-12T22:22:14.748Z,2.20
2018-08-12T22:24:46.383Z,2.20
2018-08-12T22:27:17.831Z,2.55
2018-08-12T22:29:49.330Z,2.58
2018-08-12T22:32:20.879Z,2.58
2018-08-12T22:34:52.522Z,2.80
2018-08-12T22:37:23.945Z,2.55
2018-08-12T22:39:55.353Z,2.45
2018-08-12T22:42:26.958Z,2.25
2018-08-12T22:44:58.318Z,2.72
2018-08-12T22:47:30.229Z,2.33
2018-08-12T22:50:01.737Z,2.70
2018-08-12T22:52:33.210Z,2.40
2018-08-12T22:55:04.711Z,2.42
2018-08-12T22:57:40.353Z,2.37
2018-08-12T23:00:16.774Z,2.70
2018-08-12T23:02:48.418Z,2.70
2018-08-12T23:05:19.864Z,3.00
2018-08-12T23:07:51.341Z,2.37
2018-08-12T23:10:23.064Z,2.52
2018-08-12T23:12:54.486Z,3.00
2018-08-12T23:16:10.032Z,2.45
2018-08-12T23:18:41.924Z,3.02
2018-08-12T23:21:15.408Z,2.30
2018-08-12T23:23:48.136Z,2.47
2018-08-12T23:26:21.383Z,2.45
2018-08-12T23:28:52.841Z,2.58
2018-08-12T23:31:24.320Z,2.72
2018-08-12T23:33:55.667Z,2.58
2018-08-12T23:36:27.046Z,2.87
2018-08-12T23:38:58.747Z,2.60
2018-08-12T23:41:30.042Z,2.67
2018-08-12T23:44:01.472Z,2.60
2018-08-12T23:46:32.842Z,2.40
2018-08-12T23:49:04.350Z,2.72
2018-08-12T23:51:35.704Z,2.55
2018-08-12T23:54:07.156Z,2.60
2018-08-12T23:56:38.630Z,2.35
2018-08-12T23:59:10.131Z,2.95
